createdAt,value
2022-08-23T00:00:58.914Z,2.75
2022-08-23T00:03:45.977Z,3.10
2022-08-23T00:06:29.096Z,5.00
2022-08-23T00:09:20.639Z,5.25
2022-08-23T00:12:22.290Z,5.45
2022-08-23T00:15:11.992Z,4.82
2022-08-23T00:17:55.884Z,2.83
2022-08-23T00:20:45.025Z,3.40
2022-08-23T00:23:27.072Z,3.28
2022-08-23T00:26:24.888Z,3.25
2022-08-23T00:29:12.226Z,3.83
2022-08-23T00:31:54.113Z,3.28
2022-08-23T00:34:43.892Z,3.70
2022-08-23T00:37:26.358Z,4.25
2022-08-23T00:40:17.084Z,2.58
2022-08-23T00:43:34.197Z,3.95
2022-08-23T00:46:53.283Z,2.33
2022-08-23T00:49:35.051Z,3.55
2022-08-23T00:52:36.913Z,3.58
2022-08-23T00:55:21.223Z,3.90
2022-08-23T00:58:10.467Z,3.80
2022-08-23T01:00:52.036Z,3.80
2022-08-23T01:03:44.306Z,3.78
2022-08-23T01:06:36.387Z,2.38
2022-08-23T01:09:29.947Z,3.05
2022-08-23T01:12:33.126Z,5.63
2022-08-23T01:15:30.534Z,3.75
2022-08-23T01:18:19.954Z,2.60
2022-08-23T01:21:19.998Z,3.42
2022-08-23T01:24:05.137Z,2.40
2022-08-23T01:26:55.234Z,3.78
2022-08-23T01:29:36.096Z,4.38
2022-08-23T01:32:25.039Z,4.53
2022-08-23T01:35:06.337Z,4.85
2022-08-23T01:37:54.503Z,4.70
2022-08-23T01:40:36.462Z,3.95
2022-08-23T01:43:29.109Z,3.05
2022-08-23T01:46:20.035Z,3.25
2022-08-23T01:49:09.079Z,4.78
2022-08-23T01:51:52.724Z,3.97
2022-08-23T01:54:43.114Z,4.45
2022-08-23T01:57:24.295Z,3.20
2022-08-23T02:00:14.361Z,4.00
2022-08-23T02:02:57.297Z,4.28
2022-08-23T02:05:47.221Z,3.80
2022-08-23T02:08:47.851Z,4.13
2022-08-23T02:11:49.151Z,4.50
2022-08-23T02:14:32.120Z,6.95
2022-08-23T02:17:20.035Z,4.43
2022-08-23T02:20:02.276Z,5.60
2022-08-23T02:22:49.019Z,6.35
2022-08-23T02:25:32.517Z,2.92
2022-08-23T02:28:27.007Z,5.65
2022-08-23T02:31:15.099Z,4.80
2022-08-23T02:33:59.381Z,3.17
2022-08-23T02:36:47.618Z,4.18
2022-08-23T02:39:30.052Z,4.65
2022-08-23T02:42:19.103Z,3.05
2022-08-23T02:45:02.039Z,5.32
2022-08-23T02:47:48.448Z,6.72
2022-08-23T02:50:41.843Z,5.75
2022-08-23T02:53:30.148Z,3.83
2022-08-23T02:56:21.571Z,4.45
2022-08-23T02:59:10.071Z,4.20
2022-08-23T03:01:52.122Z,4.50
2022-08-23T03:04:37.987Z,3.58
2022-08-23T03:07:28.242Z,4.70
2022-08-23T03:10:17.085Z,4.75
2022-08-23T03:13:05.868Z,3.80
2022-08-23T03:15:54.966Z,3.20
2022-08-23T03:18:37.121Z,5.93
2022-08-23T03:21:26.177Z,4.25
2022-08-23T03:24:10.324Z,3.40
2022-08-23T03:27:05.001Z,3.55
2022-08-23T03:29:54.790Z,5.00
2022-08-23T03:32:38.437Z,3.50
2022-08-23T03:35:27.280Z,4.40
2022-08-23T03:38:09.197Z,6.15
2022-08-23T03:40:59.594Z,6.03
2022-08-23T03:43:40.570Z,3.83
2022-08-23T03:46:33.931Z,5.25
2022-08-23T03:49:16.131Z,4.70
2022-08-23T03:52:14.166Z,8.25
2022-08-23T03:54:55.220Z,5.25
2022-08-23T03:57:48.361Z,4.97
2022-08-23T04:00:29.167Z,5.10
2022-08-23T04:03:17.093Z,5.10
2022-08-23T04:06:05.832Z,4.43
2022-08-23T04:08:53.355Z,4.30
2022-08-23T04:11:34.166Z,5.60
2022-08-23T04:14:22.234Z,6.20
2022-08-23T04:17:04.180Z,6.05
2022-08-23T04:19:51.089Z,5.10
2022-08-23T04:22:32.188Z,6.38
2022-08-23T04:25:34.730Z,5.57
2022-08-23T04:28:22.191Z,4.18
2022-08-23T04:31:03.053Z,5.50
2022-08-23T04:33:54.331Z,6.45
2022-08-23T04:36:50.023Z,6.38
2022-08-23T04:40:02.955Z,5.75
2022-08-23T04:45:59.196Z,5.53
2022-08-23T04:48:42.076Z,3.83
2022-08-23T04:51:32.575Z,3.15
2022-08-23T04:54:14.074Z,6.32
2022-08-23T04:57:25.659Z,4.72
2022-08-23T05:00:14.080Z,5.65
2022-08-23T05:02:59.640Z,4.47
2022-08-23T05:05:48.843Z,6.40
2022-08-23T05:08:35.819Z,3.85
2022-08-23T05:11:26.163Z,5.85
2022-08-23T05:14:14.157Z,3.25
2022-08-23T05:16:55.292Z,2.97
2022-08-23T05:19:47.018Z,3.67
2022-08-23T05:22:29.029Z,4.95
2022-08-23T05:25:49.491Z,3.88
2022-08-23T05:28:57.207Z,4.22
2022-08-23T05:31:44.548Z,5.57
2022-08-23T05:34:37.092Z,4.00
2022-08-23T05:37:28.217Z,4.18
2022-08-23T05:40:09.241Z,4.40
2022-08-23T05:43:03.503Z,3.42
2022-08-23T05:45:52.285Z,3.90
2022-08-23T05:48:42.186Z,5.40
2022-08-23T05:51:27.191Z,3.47
2022-08-23T05:54:16.821Z,3.90
2022-08-23T05:57:18.538Z,3.55
2022-08-23T06:00:06.894Z,4.63
2022-08-23T06:02:57.476Z,4.30
2022-08-23T06:05:46.217Z,5.03
2022-08-23T06:08:30.203Z,3.25
2022-08-23T06:11:27.417Z,5.43
2022-08-23T06:14:10.596Z,3.88
2022-08-23T06:16:58.206Z,3.70
2022-08-23T06:19:41.356Z,3.83
2022-08-23T06:22:50.874Z,3.70
2022-08-23T06:25:39.512Z,4.10
2022-08-23T06:28:32.220Z,4.65
2022-08-23T06:31:14.056Z,2.88
2022-08-23T06:34:12.681Z,3.38
2022-08-23T06:37:37.507Z,2.17
2022-08-23T06:40:36.841Z,2.25
2022-08-23T06:43:42.143Z,2.92
2022-08-23T06:46:30.637Z,2.38
2022-08-23T06:49:21.725Z,2.78
2022-08-23T06:52:10.224Z,2.25
2022-08-23T06:58:13.198Z,5.00
2022-08-23T07:01:47.300Z,1.17
2022-08-23T07:04:42.249Z,1.85
2022-08-23T07:07:44.366Z,2.97
2022-08-23T07:10:34.306Z,1.15
2022-08-23T07:13:18.748Z,0.95
2022-08-23T07:16:08.200Z,1.33
2022-08-23T07:18:49.618Z,1.27
2022-08-23T07:21:43.269Z,2.53
2022-08-23T07:24:33.026Z,0.60
2022-08-23T07:27:29.139Z,1.15
2022-08-23T07:30:19.588Z,0.70
2022-08-23T07:33:00.486Z,1.63
2022-08-23T07:35:56.300Z,2.25
2022-08-23T07:38:39.831Z,1.60
2022-08-23T07:41:27.437Z,2.90
2022-08-23T07:44:10.279Z,1.50
2022-08-23T07:47:03.214Z,1.42
2022-08-23T07:49:47.110Z,0.98
2022-08-23T07:52:35.630Z,2.00
2022-08-23T07:55:16.291Z,1.20
2022-08-23T07:58:25.566Z,2.28
2022-08-23T08:01:32.176Z,2.67
2022-08-23T08:04:21.199Z,1.05
2022-08-23T08:07:20.961Z,3.45
2022-08-23T08:10:13.244Z,1.52
2022-08-23T08:12:55.511Z,2.35
2022-08-23T08:15:48.327Z,2.78
2022-08-23T08:18:33.348Z,0.70
2022-08-23T08:21:57.823Z,0.93
2022-08-23T08:24:56.421Z,0.80
2022-08-23T08:27:51.623Z,2.05
2022-08-23T08:30:39.301Z,4.18
2022-08-23T08:33:21.336Z,1.95
2022-08-23T08:36:15.455Z,6.43
2022-08-23T08:39:00.775Z,2.13
2022-08-23T08:42:07.328Z,2.15
2022-08-23T08:45:04.776Z,1.00
2022-08-23T08:51:10.224Z,5.55
2022-08-23T08:54:01.319Z,1.65
2022-08-23T08:56:51.651Z,0.98
2022-08-23T08:59:59.453Z,2.47
2022-08-23T09:02:44.531Z,0.68
2022-08-23T09:05:39.930Z,3.42
2022-08-23T09:08:49.212Z,0.60
2022-08-23T09:11:50.520Z,0.68
2022-08-23T09:14:31.763Z,2.22
2022-08-23T09:17:28.356Z,3.85
2022-08-23T09:23:31.719Z,1.38
2022-08-23T09:26:32.298Z,1.55
2022-08-23T09:29:40.375Z,2.78
2022-08-23T09:32:39.622Z,0.60
2022-08-23T09:35:32.855Z,0.52
2022-08-23T09:38:27.801Z,0.75
2022-08-23T09:41:24.391Z,0.85
2022-08-23T09:44:10.253Z,1.73
2022-08-23T09:46:57.853Z,0.38
2022-08-23T09:49:39.127Z,1.02
2022-08-23T09:52:32.411Z,1.75
2022-08-23T09:55:34.692Z,1.08
2022-08-23T09:58:47.195Z,0.95
2022-08-23T10:01:58.769Z,2.47
2022-08-23T10:05:14.845Z,0.55
2022-08-23T10:08:10.877Z,1.30
2022-08-23T10:11:10.622Z,1.02
2022-08-23T10:13:53.455Z,0.57
2022-08-23T10:17:08.171Z,0.80
2022-08-23T10:20:19.387Z,0.43
2022-08-23T10:23:24.820Z,0.65
2022-08-23T10:26:06.639Z,0.40
2022-08-23T10:29:26.281Z,0.32
2022-08-23T10:32:27.763Z,4.10
2022-08-23T10:35:30.719Z,1.23
2022-08-23T10:38:30.309Z,0.80
2022-08-23T10:41:37.361Z,0.82
2022-08-23T10:44:40.295Z,1.80
2022-08-23T10:47:27.524Z,0.80
2022-08-23T10:50:19.279Z,1.15
2022-08-23T10:53:17.563Z,0.40
2022-08-23T10:56:09.561Z,0.32
2022-08-23T10:59:21.550Z,0.20
2022-08-23T11:02:34.009Z,0.20
2022-08-23T11:05:31.765Z,0.60
2022-08-23T11:08:46.910Z,2.28
2022-08-23T11:11:43.539Z,0.93
2022-08-23T11:14:55.172Z,1.25
2022-08-23T11:17:56.472Z,0.22
2022-08-23T11:20:56.689Z,1.75
2022-08-23T11:24:08.198Z,0.10
2022-08-23T11:27:00.749Z,0.22
2022-08-23T11:29:55.570Z,0.70
2022-08-23T11:32:49.359Z,0.35
2022-08-23T11:36:04.824Z,1.55
2022-08-23T11:38:55.672Z,0.60
2022-08-23T11:42:18.405Z,0.73
2022-08-23T11:45:01.465Z,0.17
2022-08-23T11:47:53.274Z,0.47
2022-08-23T11:50:39.791Z,1.02
2022-08-23T11:53:30.541Z,3.80
2022-08-23T11:56:16.347Z,3.00
2022-08-23T11:59:16.307Z,4.15
2022-08-23T12:02:01.694Z,5.07
2022-08-23T12:04:56.434Z,3.33
2022-08-23T12:08:00.047Z,0.82
2022-08-23T12:10:47.787Z,1.05
2022-08-23T12:13:28.873Z,0.98
2022-08-23T12:16:49.787Z,0.80
2022-08-23T12:19:40.742Z,2.17
2022-08-23T12:22:31.651Z,1.90
2022-08-23T12:25:16.457Z,1.38
2022-08-23T12:28:38.349Z,2.25
2022-08-23T12:31:43.628Z,1.65
2022-08-23T12:34:31.951Z,0.30
2022-08-23T12:37:46.840Z,0.17
2022-08-23T12:40:39.786Z,0.28
2022-08-23T12:46:19.645Z,0.20
2022-08-23T12:52:14.535Z,0.10
2022-08-23T12:55:05.103Z,0.82
2022-08-23T12:57:49.840Z,0.40
2022-08-23T13:00:44.755Z,2.47
2022-08-23T13:03:30.482Z,0.10
2022-08-23T13:06:24.513Z,0.30
2022-08-23T13:09:28.960Z,0.30
2022-08-23T13:12:17.490Z,1.25
2022-08-23T13:15:02.758Z,0.73
2022-08-23T13:17:51.127Z,0.45
2022-08-23T13:20:33.017Z,0.10
2022-08-23T13:23:24.366Z,1.13
2022-08-23T13:26:38.357Z,1.08
2022-08-23T13:29:33.784Z,5.20
2022-08-23T13:32:37.168Z,1.02
2022-08-23T13:35:56.524Z,1.20
2022-08-23T13:38:39.679Z,1.65
2022-08-23T13:41:40.402Z,0.47
2022-08-23T13:44:23.885Z,0.35
2022-08-23T13:47:12.780Z,1.00
2022-08-23T13:49:53.562Z,2.97
2022-08-23T13:53:12.992Z,2.17
2022-08-23T13:56:02.665Z,0.52
2022-08-23T13:59:31.173Z,0.40
2022-08-23T14:02:18.533Z,1.10
2022-08-23T14:05:09.626Z,0.40
2022-08-23T14:07:54.239Z,0.60
2022-08-23T14:10:42.537Z,0.85
2022-08-23T14:13:24.508Z,0.85
2022-08-23T14:19:54.734Z,0.20
2022-08-23T14:22:29.980Z,0.32
2022-08-23T14:25:12.497Z,2.50
2022-08-23T14:28:01.513Z,0.50
2022-08-23T14:30:48.581Z,0.57
2022-08-23T14:33:30.173Z,0.90
2022-08-23T14:36:18.830Z,0.40
2022-08-23T14:39:02.693Z,0.20
2022-08-23T14:41:52.287Z,1.10
2022-08-23T14:44:35.942Z,0.80
2022-08-23T14:47:24.655Z,0.30
2022-08-23T14:50:05.439Z,0.38
2022-08-23T14:52:54.114Z,1.45
2022-08-23T14:55:34.435Z,0.80
2022-08-23T14:58:21.731Z,0.68
2022-08-23T15:01:03.033Z,0.40
2022-08-23T15:03:52.051Z,0.80
2022-08-23T15:06:32.471Z,2.00
2022-08-23T15:09:19.623Z,0.60
2022-08-23T15:15:12.415Z,1.70
2022-08-23T15:18:03.441Z,0.35
2022-08-23T15:20:52.172Z,0.45
2022-08-23T15:23:33.558Z,1.88
2022-08-23T15:26:28.377Z,1.15
2022-08-23T15:29:23.768Z,0.50
2022-08-23T15:32:10.613Z,0.60
2022-08-23T15:34:53.468Z,0.40
2022-08-23T15:37:43.355Z,1.75
2022-08-23T15:40:25.699Z,1.88
2022-08-23T15:43:12.661Z,0.93
2022-08-23T15:45:55.924Z,1.25
2022-08-23T15:48:50.719Z,0.63
2022-08-23T15:51:34.668Z,0.43
2022-08-23T15:54:23.773Z,1.30
2022-08-23T15:57:05.259Z,1.92
2022-08-23T15:59:54.981Z,0.68
2022-08-23T16:03:18.258Z,0.80
2022-08-23T16:05:57.599Z,1.33
2022-08-23T16:08:42.271Z,3.17
2022-08-23T16:11:31.904Z,3.05
2022-08-23T16:14:13.265Z,3.15
2022-08-23T16:17:01.809Z,2.28
2022-08-23T16:19:44.148Z,0.60
2022-08-23T16:22:32.648Z,0.60
2022-08-23T16:25:15.296Z,1.00
2022-08-23T16:28:04.773Z,14.32
2022-08-23T16:30:52.736Z,11.65
2022-08-23T16:33:35.120Z,8.88
2022-08-23T16:36:29.733Z,6.18
2022-08-23T16:39:12.650Z,4.47
2022-08-23T16:42:01.125Z,3.33
2022-08-23T16:44:41.808Z,1.55
2022-08-23T16:47:30.583Z,0.82
2022-08-23T16:50:12.763Z,3.53
2022-08-23T16:53:07.089Z,0.65
2022-08-23T16:55:51.032Z,0.93
2022-08-23T16:58:37.727Z,0.68
2022-08-23T17:01:19.892Z,0.75
2022-08-23T17:04:06.538Z,0.73
2022-08-23T17:06:47.994Z,0.60
2022-08-23T17:09:36.528Z,1.40
2022-08-23T17:12:17.781Z,2.13
2022-08-23T17:15:06.278Z,2.83
2022-08-23T17:17:51.327Z,2.80
2022-08-23T17:20:43.590Z,2.78
2022-08-23T17:23:24.623Z,1.52
2022-08-23T17:26:14.341Z,0.88
2022-08-23T17:29:11.536Z,1.80
2022-08-23T17:31:59.634Z,1.75
2022-08-23T17:34:40.627Z,3.25
2022-08-23T17:37:30.296Z,1.67
2022-08-23T17:40:21.466Z,1.10
2022-08-23T17:43:11.591Z,1.80
2022-08-23T17:45:56.722Z,1.10
2022-08-23T17:48:45.294Z,0.98
2022-08-23T17:51:27.227Z,0.90
2022-08-23T17:54:19.055Z,1.63
2022-08-23T17:57:00.809Z,1.88
2022-08-23T17:59:48.688Z,1.60
2022-08-23T18:02:31.576Z,1.67
2022-08-23T18:05:21.322Z,2.38
2022-08-23T18:08:03.293Z,1.48
2022-08-23T18:10:50.908Z,1.05
2022-08-23T18:13:34.599Z,1.85
2022-08-23T18:16:22.634Z,2.72
2022-08-23T18:19:04.692Z,0.50
2022-08-23T18:21:54.671Z,2.05
2022-08-23T18:24:37.124Z,1.85
2022-08-23T18:27:46.565Z,2.00
2022-08-23T18:30:40.547Z,1.17
2022-08-23T18:33:46.454Z,1.85
2022-08-23T18:36:28.730Z,0.90
2022-08-23T18:39:31.870Z,1.20
2022-08-23T18:42:14.624Z,0.70
2022-08-23T18:45:03.725Z,0.80
2022-08-23T18:47:46.192Z,0.47
2022-08-23T18:50:34.732Z,2.45
2022-08-23T18:53:16.704Z,0.50
2022-08-23T18:56:04.971Z,2.95
2022-08-23T18:58:47.966Z,1.58
2022-08-23T19:01:40.794Z,1.65
2022-08-23T19:04:21.940Z,2.03
2022-08-23T19:07:10.472Z,2.58
2022-08-23T19:09:53.237Z,1.92
2022-08-23T19:12:51.863Z,1.95
2022-08-23T19:15:35.747Z,2.00
2022-08-23T19:18:23.590Z,3.08
2022-08-23T19:21:05.939Z,2.13
2022-08-23T19:23:58.614Z,2.13
2022-08-23T19:26:44.449Z,2.67
2022-08-23T19:32:16.831Z,2.33
2022-08-23T19:35:04.338Z,1.40
2022-08-23T19:37:45.731Z,1.70
2022-08-23T19:40:35.603Z,1.23
2022-08-23T19:43:19.958Z,1.92
2022-08-23T19:46:06.672Z,1.42
2022-08-23T19:48:48.764Z,1.25
2022-08-23T19:51:36.598Z,3.70
2022-08-23T19:54:18.103Z,2.13
2022-08-23T19:57:07.996Z,2.08
2022-08-23T19:59:49.712Z,1.88
2022-08-23T20:02:36.619Z,2.28
2022-08-23T20:05:18.235Z,1.52
2022-08-23T20:08:06.383Z,1.38
2022-08-23T20:10:47.726Z,2.00
2022-08-23T20:13:34.716Z,1.73
2022-08-23T20:16:15.927Z,1.88
2022-08-23T20:19:08.934Z,2.00
2022-08-23T20:21:50.822Z,2.45
2022-08-23T20:24:51.564Z,2.97
2022-08-23T20:27:37.031Z,2.90
2022-08-23T20:30:35.734Z,1.70
2022-08-23T20:33:23.811Z,4.30
2022-08-23T20:36:07.182Z,2.40
2022-08-23T20:38:55.123Z,1.98
2022-08-23T20:41:39.118Z,3.00
2022-08-23T20:44:30.226Z,2.03
2022-08-23T20:47:11.764Z,3.17
2022-08-23T20:49:59.368Z,1.98
2022-08-23T20:52:40.649Z,3.33
2022-08-23T20:55:31.778Z,2.58
2022-08-23T20:58:13.771Z,4.18
2022-08-23T21:01:00.952Z,5.05
2022-08-23T21:03:44.680Z,5.60
2022-08-23T21:06:45.096Z,2.28
2022-08-23T21:09:31.042Z,3.90
2022-08-23T21:12:19.386Z,4.43
2022-08-23T21:15:00.682Z,3.95
2022-08-23T21:17:51.889Z,2.88
2022-08-23T21:20:34.498Z,3.03
2022-08-23T21:23:25.670Z,2.70
2022-08-23T21:26:09.474Z,2.65
2022-08-23T21:29:05.667Z,2.70
2022-08-23T21:31:52.798Z,4.50
2022-08-23T21:34:33.879Z,3.35
2022-08-23T21:37:22.110Z,6.00
2022-08-23T21:40:01.885Z,3.22
2022-08-23T21:42:50.014Z,3.47
2022-08-23T21:45:32.079Z,3.13
2022-08-23T21:48:19.729Z,2.35
2022-08-23T21:51:00.810Z,3.22
2022-08-23T21:53:50.581Z,2.78
2022-08-23T21:56:32.383Z,4.22
2022-08-23T21:59:23.725Z,2.97
2022-08-23T22:02:04.851Z,4.15
2022-08-23T22:04:52.675Z,5.22
2022-08-23T22:07:35.070Z,3.00
2022-08-23T22:10:22.762Z,6.10
2022-08-23T22:13:04.062Z,2.97
2022-08-23T22:15:52.127Z,5.47
2022-08-23T22:18:33.776Z,3.65
2022-08-23T22:21:21.707Z,3.70
2022-08-23T22:24:02.851Z,3.72
2022-08-23T22:27:00.300Z,4.32
2022-08-23T22:29:53.712Z,4.18
2022-08-23T22:32:41.599Z,3.25
2022-08-23T22:35:22.826Z,3.70
2022-08-23T22:38:14.011Z,3.63
2022-08-23T22:41:00.518Z,4.78
2022-08-23T22:46:30.887Z,4.38
2022-08-23T22:49:20.135Z,3.60
2022-08-23T22:52:03.008Z,4.85
2022-08-23T22:54:49.721Z,5.00
2022-08-23T22:57:30.799Z,3.22
2022-08-23T23:00:19.226Z,5.82
2022-08-23T23:03:00.855Z,6.20
2022-08-23T23:05:49.950Z,4.95
2022-08-23T23:08:30.885Z,3.65
2022-08-23T23:11:20.868Z,4.97
2022-08-23T23:14:01.942Z,3.40
2022-08-23T23:16:50.961Z,8.88
2022-08-23T23:19:50.276Z,4.75
2022-08-23T23:22:38.959Z,2.88
2022-08-23T23:25:20.675Z,1.90
2022-08-23T23:28:09.127Z,2.15
2022-08-23T23:31:05.821Z,3.83
2022-08-23T23:33:54.153Z,3.17
2022-08-23T23:36:37.621Z,3.92
2022-08-23T23:39:26.139Z,3.83
2022-08-23T23:42:06.836Z,4.15
2022-08-23T23:44:54.065Z,3.25
2022-08-23T23:47:35.753Z,2.03
2022-08-23T23:50:23.154Z,4.47
2022-08-23T23:53:03.867Z,1.73
2022-08-23T23:55:50.741Z,5.00
2022-08-23T23:58:33.106Z,2.28
